sensor_id;sensor_type;location;lat;lon;timestamp;temperature;humidity
1878;DHT22;939;51.426;6.972;2024-01-16T00:01:28;2.80;99.90
1878;DHT22;939;51.426;6.972;2024-01-16T00:03:55;2.90;99.90
1878;DHT22;939;51.426;6.972;2024-01-16T00:06:23;2.80;99.90
1878;DHT22;939;51.426;6.972;2024-01-16T00:08:59;2.80;99.90
1878;DHT22;939;51.426;6.972;2024-01-16T00:11:40;2.90;99.90
1878;DHT22;939;51.426;6.972;2024-01-16T00:14:13;2.80;99.90
1878;DHT22;939;51.426;6.972;2024-01-16T00:16:55;2.80;99.90
1878;DHT22;939;51.426;6.972;2024-01-16T00:19:27;2.70;99.90
1878;DHT22;939;51.426;6.972;2024-01-16T00:22:36;2.70;99.90
1878;DHT22;939;51.426;6.972;2024-01-16T00:25:20;2.80;99.90
1878;DHT22;939;51.426;6.972;2024-01-16T00:27:48;2.80;99.90
1878;DHT22;939;51.426;6.972;2024-01-16T00:33:23;2.70;99.90
1878;DHT22;939;51.426;6.972;2024-01-16T00:35:57;2.70;99.90
1878;DHT22;939;51.426;6.972;2024-01-16T00:38:31;2.70;99.90
1878;DHT22;939;51.426;6.972;2024-01-16T00:41:01;2.60;99.90
1878;DHT22;939;51.426;6.972;2024-01-16T00:43:28;2.60;99.90
1878;DHT22;939;51.426;6.972;2024-01-16T00:45:56;2.60;99.90
1878;DHT22;939;51.426;6.972;2024-01-16T00:48:25;2.70;99.90
1878;DHT22;939;51.426;6.972;2024-01-16T00:51:08;2.70;99.90
1878;DHT22;939;51.426;6.972;2024-01-16T00:53:41;2.60;99.90
1878;DHT22;939;51.426;6.972;2024-01-16T00:56:18;2.60;99.90
1878;DHT22;939;51.426;6.972;2024-01-16T00:58:51;2.70;99.90
1878;DHT22;939;51.426;6.972;2024-01-16T01:01:19;2.80;99.90
1878;DHT22;939;51.426;6.972;2024-01-16T01:03:58;2.80;99.90
1878;DHT22;939;51.426;6.972;2024-01-16T01:06:29;2.80;99.90
1878;DHT22;939;51.426;6.972;2024-01-16T01:09:08;2.80;99.90
1878;DHT22;939;51.426;6.972;2024-01-16T01:12:00;2.80;99.90
1878;DHT22;939;51.426;6.972;2024-01-16T01:14:41;2.80;99.90
1878;DHT22;939;51.426;6.972;2024-01-16T01:17:32;2.80;99.90
1878;DHT22;939;51.426;6.972;2024-01-16T01:20:33;2.70;99.90
1878;DHT22;939;51.426;6.972;2024-01-16T01:23:14;2.70;99.90
1878;DHT22;939;51.426;6.972;2024-01-16T01:29:17;2.80;99.90
1878;DHT22;939;51.426;6.972;2024-01-16T01:32:42;2.70;99.90
1878;DHT22;939;51.426;6.972;2024-01-16T01:35:46;2.70;99.90
1878;DHT22;939;51.426;6.972;2024-01-16T01:38:17;2.70;99.90
1878;DHT22;939;51.426;6.972;2024-01-16T01:40:46;2.70;99.90
1878;DHT22;939;51.426;6.972;2024-01-16T01:43:22;2.80;99.90
1878;DHT22;939;51.426;6.972;2024-01-16T01:46:04;2.80;99.90
1878;DHT22;939;51.426;6.972;2024-01-16T01:48:37;2.80;99.90
1878;DHT22;939;51.426;6.972;2024-01-16T01:51:05;2.80;99.90
1878;DHT22;939;51.426;6.972;2024-01-16T01:53:38;2.90;99.90
1878;DHT22;939;51.426;6.972;2024-01-16T01:56:22;2.80;99.90
1878;DHT22;939;51.426;6.972;2024-01-16T01:58:54;2.80;99.90
1878;DHT22;939;51.426;6.972;2024-01-16T02:04:59;2.90;99.90
1878;DHT22;939;51.426;6.972;2024-01-16T02:07:36;2.90;99.90
1878;DHT22;939;51.426;6.972;2024-01-16T02:10:05;2.90;99.90
1878;DHT22;939;51.426;6.972;2024-01-16T02:12:38;2.90;99.90
1878;DHT22;939;51.426;6.972;2024-01-16T02:15:08;2.90;99.90
1878;DHT22;939;51.426;6.972;2024-01-16T02:17:41;2.90;99.90
1878;DHT22;939;51.426;6.972;2024-01-16T02:20:11;2.90;99.90
1878;DHT22;939;51.426;6.972;2024-01-16T02:23:08;2.90;99.90
1878;DHT22;939;51.426;6.972;2024-01-16T02:25:54;2.90;99.90
1878;DHT22;939;51.426;6.972;2024-01-16T02:28:33;2.90;99.90
1878;DHT22;939;51.426;6.972;2024-01-16T02:31:19;2.90;99.90
1878;DHT22;939;51.426;6.972;2024-01-16T02:33:46;2.70;99.90
1878;DHT22;939;51.426;6.972;2024-01-16T02:36:16;2.70;99.90
1878;DHT22;939;51.426;6.972;2024-01-16T02:38:43;2.80;99.90
1878;DHT22;939;51.426;6.972;2024-01-16T02:41:13;2.80;99.90
1878;DHT22;939;51.426;6.972;2024-01-16T02:43:41;2.70;99.90
1878;DHT22;939;51.426;6.972;2024-01-16T02:46:21;2.90;99.90
1878;DHT22;939;51.426;6.972;2024-01-16T02:49:11;2.80;99.90
1878;DHT22;939;51.426;6.972;2024-01-16T02:52:05;2.80;99.90
1878;DHT22;939;51.426;6.972;2024-01-16T02:54:35;2.90;99.90
1878;DHT22;939;51.426;6.972;2024-01-16T02:57:07;3.00;99.90
1878;DHT22;939;51.426;6.972;2024-01-16T02:59:34;2.90;99.90
1878;DHT22;939;51.426;6.972;2024-01-16T03:02:01;2.90;99.90
1878;DHT22;939;51.426;6.972;2024-01-16T03:04:29;3.00;99.90
1878;DHT22;939;51.426;6.972;2024-01-16T03:11:15;3.20;99.90
1878;DHT22;939;51.426;6.972;2024-01-16T03:56:07;3.00;99.90
1878;DHT22;939;51.426;6.972;2024-01-16T04:03:07;2.90;99.90
1878;DHT22;939;51.426;6.972;2024-01-16T04:06:49;3.00;99.90
1878;DHT22;939;51.426;6.972;2024-01-16T04:13:28;3.00;99.90
1878;DHT22;939;51.426;6.972;2024-01-16T04:16:34;3.00;99.90
1878;DHT22;939;51.426;6.972;2024-01-16T04:19:01;3.00;99.90
1878;DHT22;939;51.426;6.972;2024-01-16T04:21:28;3.00;99.90
1878;DHT22;939;51.426;6.972;2024-01-16T04:23:55;3.00;99.90
1878;DHT22;939;51.426;6.972;2024-01-16T04:26:22;3.00;99.90
1878;DHT22;939;51.426;6.972;2024-01-16T04:28:51;3.00;99.90
1878;DHT22;939;51.426;6.972;2024-01-16T04:31:18;3.00;99.90
1878;DHT22;939;51.426;6.972;2024-01-16T04:33:47;3.00;99.90
1878;DHT22;939;51.426;6.972;2024-01-16T04:36:14;3.10;99.90
1878;DHT22;939;51.426;6.972;2024-01-16T04:38:41;3.00;99.90
1878;DHT22;939;51.426;6.972;2024-01-16T04:41:10;3.00;99.90
1878;DHT22;939;51.426;6.972;2024-01-16T04:43:37;3.00;99.90
1878;DHT22;939;51.426;6.972;2024-01-16T04:46:05;2.90;99.90
1878;DHT22;939;51.426;6.972;2024-01-16T04:48:32;3.00;99.90
1878;DHT22;939;51.426;6.972;2024-01-16T04:50:59;2.90;99.90
1878;DHT22;939;51.426;6.972;2024-01-16T04:53:26;3.00;99.90
1878;DHT22;939;51.426;6.972;2024-01-16T04:55:53;2.90;99.90
1878;DHT22;939;51.426;6.972;2024-01-16T04:58:20;3.00;99.90
1878;DHT22;939;51.426;6.972;2024-01-16T05:00:47;2.90;99.90
1878;DHT22;939;51.426;6.972;2024-01-16T05:03:15;2.90;99.90
1878;DHT22;939;51.426;6.972;2024-01-16T05:05:42;3.00;99.90
1878;DHT22;939;51.426;6.972;2024-01-16T05:08:10;3.00;99.90
1878;DHT22;939;51.426;6.972;2024-01-16T05:10:36;3.00;99.90
1878;DHT22;939;51.426;6.972;2024-01-16T05:13:03;2.90;99.90
1878;DHT22;939;51.426;6.972;2024-01-16T05:15:30;2.90;99.90
1878;DHT22;939;51.426;6.972;2024-01-16T05:17:57;2.90;99.90
1878;DHT22;939;51.426;6.972;2024-01-16T05:20:27;2.90;99.90
1878;DHT22;939;51.426;6.972;2024-01-16T05:22:54;2.90;99.90
1878;DHT22;939;51.426;6.972;2024-01-16T05:25:22;2.90;99.90
1878;DHT22;939;51.426;6.972;2024-01-16T05:27:49;2.80;99.90
1878;DHT22;939;51.426;6.972;2024-01-16T05:30:16;2.90;99.90
1878;DHT22;939;51.426;6.972;2024-01-16T05:32:43;2.90;99.90
1878;DHT22;939;51.426;6.972;2024-01-16T05:35:13;2.90;99.90
1878;DHT22;939;51.426;6.972;2024-01-16T05:37:42;2.90;99.90
1878;DHT22;939;51.426;6.972;2024-01-16T05:40:10;2.80;99.90
1878;DHT22;939;51.426;6.972;2024-01-16T05:42:38;2.90;99.90
1878;DHT22;939;51.426;6.972;2024-01-16T05:45:06;3.00;99.90
1878;DHT22;939;51.426;6.972;2024-01-16T05:47:33;3.00;99.90
1878;DHT22;939;51.426;6.972;2024-01-16T05:49:59;2.90;99.90
1878;DHT22;939;51.426;6.972;2024-01-16T05:52:26;2.90;99.90
1878;DHT22;939;51.426;6.972;2024-01-16T05:54:55;2.80;99.90
1878;DHT22;939;51.426;6.972;2024-01-16T05:57:24;2.90;99.90
1878;DHT22;939;51.426;6.972;2024-01-16T05:59:51;3.00;99.90
1878;DHT22;939;51.426;6.972;2024-01-16T06:02:18;3.00;99.90
1878;DHT22;939;51.426;6.972;2024-01-16T06:04:45;3.10;99.90
1878;DHT22;939;51.426;6.972;2024-01-16T06:07:12;3.10;99.90
1878;DHT22;939;51.426;6.972;2024-01-16T06:09:39;3.10;99.90
1878;DHT22;939;51.426;6.972;2024-01-16T06:12:10;3.10;99.90
1878;DHT22;939;51.426;6.972;2024-01-16T06:14:38;3.10;99.90
1878;DHT22;939;51.426;6.972;2024-01-16T06:17:05;3.20;99.90
1878;DHT22;939;51.426;6.972;2024-01-16T06:19:32;3.20;99.90
1878;DHT22;939;51.426;6.972;2024-01-16T06:21:59;3.10;99.90
1878;DHT22;939;51.426;6.972;2024-01-16T06:24:26;3.00;99.90
1878;DHT22;939;51.426;6.972;2024-01-16T06:26:54;3.10;99.90
1878;DHT22;939;51.426;6.972;2024-01-16T06:29:23;3.10;99.90
1878;DHT22;939;51.426;6.972;2024-01-16T06:31:49;3.00;99.90
1878;DHT22;939;51.426;6.972;2024-01-16T06:34:16;3.10;99.90
1878;DHT22;939;51.426;6.972;2024-01-16T06:36:43;3.00;99.90
1878;DHT22;939;51.426;6.972;2024-01-16T06:39:10;3.00;99.90
1878;DHT22;939;51.426;6.972;2024-01-16T06:41:41;2.90;99.90
1878;DHT22;939;51.426;6.972;2024-01-16T06:44:13;2.90;99.90
1878;DHT22;939;51.426;6.972;2024-01-16T06:46:41;2.90;99.90
1878;DHT22;939;51.426;6.972;2024-01-16T06:49:08;2.80;99.90
1878;DHT22;939;51.426;6.972;2024-01-16T06:51:35;2.60;99.90
1878;DHT22;939;51.426;6.972;2024-01-16T06:54:02;2.60;99.90
1878;DHT22;939;51.426;6.972;2024-01-16T06:56:29;2.70;99.90
1878;DHT22;939;51.426;6.972;2024-01-16T06:58:55;2.60;99.90
1878;DHT22;939;51.426;6.972;2024-01-16T07:01:22;2.60;99.90
1878;DHT22;939;51.426;6.972;2024-01-16T07:03:53;2.70;99.90
1878;DHT22;939;51.426;6.972;2024-01-16T07:06:20;2.60;99.90
1878;DHT22;939;51.426;6.972;2024-01-16T07:08:47;2.60;99.90
1878;DHT22;939;51.426;6.972;2024-01-16T07:11:14;2.50;99.90
1878;DHT22;939;51.426;6.972;2024-01-16T07:13:41;2.50;99.90
1878;DHT22;939;51.426;6.972;2024-01-16T07:16:09;2.50;99.90
1878;DHT22;939;51.426;6.972;2024-01-16T07:18:38;2.50;99.90
1878;DHT22;939;51.426;6.972;2024-01-16T07:21:16;2.40;99.90
1878;DHT22;939;51.426;6.972;2024-01-16T07:23:43;2.40;99.90
1878;DHT22;939;51.426;6.972;2024-01-16T07:26:09;2.30;99.90
1878;DHT22;939;51.426;6.972;2024-01-16T07:28:37;2.20;99.90
1878;DHT22;939;51.426;6.972;2024-01-16T07:31:04;2.30;99.90
1878;DHT22;939;51.426;6.972;2024-01-16T07:33:31;2.30;99.90
1878;DHT22;939;51.426;6.972;2024-01-16T07:35:57;2.20;99.90
1878;DHT22;939;51.426;6.972;2024-01-16T07:38:26;2.30;99.90
1878;DHT22;939;51.426;6.972;2024-01-16T07:40:53;2.30;99.90
1878;DHT22;939;51.426;6.972;2024-01-16T07:43:21;2.30;99.90
1878;DHT22;939;51.426;6.972;2024-01-16T07:45:48;2.30;99.90
1878;DHT22;939;51.426;6.972;2024-01-16T07:48:15;2.30;99.90
1878;DHT22;939;51.426;6.972;2024-01-16T07:50:42;2.20;99.90
1878;DHT22;939;51.426;6.972;2024-01-16T07:53:09;2.30;99.90
1878;DHT22;939;51.426;6.972;2024-01-16T07:55:37;2.20;99.90
1878;DHT22;939;51.426;6.972;2024-01-16T07:58:04;2.30;99.90
1878;DHT22;939;51.426;6.972;2024-01-16T08:00:32;2.30;99.90
1878;DHT22;939;51.426;6.972;2024-01-16T08:02:58;2.40;99.90
1878;DHT22;939;51.426;6.972;2024-01-16T08:05:25;2.30;99.90
1878;DHT22;939;51.426;6.972;2024-01-16T08:07:53;2.40;99.90
1878;DHT22;939;51.426;6.972;2024-01-16T08:10:20;2.30;99.90
1878;DHT22;939;51.426;6.972;2024-01-16T08:12:49;2.20;99.90
1878;DHT22;939;51.426;6.972;2024-01-16T08:15:16;2.30;99.90
1878;DHT22;939;51.426;6.972;2024-01-16T08:17:44;2.30;99.90
1878;DHT22;939;51.426;6.972;2024-01-16T08:20:12;2.40;99.90
1878;DHT22;939;51.426;6.972;2024-01-16T08:22:39;2.40;99.90
1878;DHT22;939;51.426;6.972;2024-01-16T08:25:07;2.40;99.90
1878;DHT22;939;51.426;6.972;2024-01-16T08:27:34;2.50;99.90
1878;DHT22;939;51.426;6.972;2024-01-16T08:30:09;2.40;99.90
1878;DHT22;939;51.426;6.972;2024-01-16T08:32:37;2.40;99.90
1878;DHT22;939;51.426;6.972;2024-01-16T08:35:06;2.50;99.90
1878;DHT22;939;51.426;6.972;2024-01-16T08:37:34;2.50;99.90
1878;DHT22;939;51.426;6.972;2024-01-16T08:40:05;2.60;99.90
1878;DHT22;939;51.426;6.972;2024-01-16T08:42:32;2.60;99.90
1878;DHT22;939;51.426;6.972;2024-01-16T08:44:59;2.50;99.90
1878;DHT22;939;51.426;6.972;2024-01-16T08:47:29;2.60;99.90
1878;DHT22;939;51.426;6.972;2024-01-16T08:49:59;2.50;99.90
1878;DHT22;939;51.426;6.972;2024-01-16T08:52:26;2.50;99.90
1878;DHT22;939;51.426;6.972;2024-01-16T08:54:53;2.40;99.90
1878;DHT22;939;51.426;6.972;2024-01-16T08:57:23;2.50;99.90
1878;DHT22;939;51.426;6.972;2024-01-16T08:59:50;2.50;99.90
1878;DHT22;939;51.426;6.972;2024-01-16T09:02:17;2.50;99.90
